createdAt,value
2022-11-21T00:01:27.590Z,3.70
2022-11-21T00:03:54.912Z,3.64
2022-11-21T00:06:23.655Z,3.67
2022-11-21T00:08:51.410Z,3.89
2022-11-21T00:11:18.805Z,3.74
2022-11-21T00:13:46.241Z,3.55
2022-11-21T00:16:15.245Z,3.62
2022-11-21T00:18:44.213Z,3.81
2022-11-21T00:21:15.081Z,3.50
2022-11-21T00:23:44.031Z,3.68
2022-11-21T00:26:15.611Z,3.40
2022-11-21T00:28:43.163Z,3.65
2022-11-21T00:31:20.676Z,3.63
2022-11-21T00:33:48.280Z,3.50
2022-11-21T00:36:15.580Z,3.48
2022-11-21T00:38:42.842Z,3.46
2022-11-21T00:41:12.953Z,3.48
2022-11-21T00:43:40.212Z,3.55
2022-11-21T00:46:07.595Z,3.18
2022-11-21T00:48:34.935Z,3.29
2022-11-21T00:51:03.533Z,3.46
2022-11-21T00:53:31.243Z,3.44
2022-11-21T00:55:58.720Z,3.55
2022-11-21T00:58:26.526Z,3.40
2022-11-21T01:01:03.508Z,3.52
2022-11-21T01:03:32.862Z,3.54
2022-11-21T01:06:08.742Z,3.28
2022-11-21T01:08:38.635Z,3.26
2022-11-21T01:11:08.388Z,3.30
2022-11-21T01:13:36.372Z,3.27
2022-11-21T01:16:16.113Z,3.32
2022-11-21T01:18:43.538Z,3.26
2022-11-21T01:21:25.315Z,3.49
2022-11-21T01:23:53.440Z,3.46
2022-11-21T01:26:23.571Z,3.19
2022-11-21T01:28:51.807Z,3.50
2022-11-21T01:31:24.844Z,3.54
2022-11-21T01:33:52.654Z,3.25
2022-11-21T01:36:21.290Z,3.55
2022-11-21T01:38:51.272Z,3.51
2022-11-21T01:41:36.036Z,3.50
2022-11-21T01:44:22.004Z,3.51
2022-11-21T01:46:50.401Z,3.49
2022-11-21T01:49:30.924Z,3.31
2022-11-21T01:52:15.378Z,3.42
2022-11-21T01:55:12.032Z,3.46
2022-11-21T01:57:43.882Z,3.40
2022-11-21T02:00:27.349Z,3.19
2022-11-21T02:02:59.099Z,3.25
2022-11-21T02:05:31.382Z,3.39
2022-11-21T02:08:03.961Z,3.12
2022-11-21T02:10:32.627Z,3.09
2022-11-21T02:13:00.821Z,3.31
2022-11-21T02:15:30.653Z,3.28
2022-11-21T02:17:57.972Z,2.97
2022-11-21T02:20:28.437Z,3.25
2022-11-21T02:22:55.762Z,3.23
2022-11-21T02:25:31.796Z,3.05
2022-11-21T02:28:02.081Z,3.23
2022-11-21T02:30:31.888Z,3.08
2022-11-21T02:32:59.383Z,3.20
2022-11-21T02:35:26.766Z,2.87
2022-11-21T02:38:19.833Z,3.11
2022-11-21T02:41:17.083Z,2.86
2022-11-21T02:44:00.921Z,2.84
2022-11-21T02:46:29.236Z,2.78
2022-11-21T02:48:58.425Z,2.95
2022-11-21T02:51:25.773Z,2.51
2022-11-21T02:53:53.049Z,2.76
2022-11-21T02:56:20.555Z,2.68
2022-11-21T02:58:48.130Z,2.80
2022-11-21T03:01:15.446Z,2.82
2022-11-21T03:03:42.845Z,2.49
2022-11-21T03:06:10.197Z,2.45
2022-11-21T03:08:37.445Z,2.68
2022-11-21T03:11:05.242Z,2.86
2022-11-21T03:13:32.575Z,2.72
2022-11-21T03:15:59.956Z,2.77
2022-11-21T03:18:27.311Z,2.56
2022-11-21T03:20:54.642Z,2.80
2022-11-21T03:23:21.958Z,2.59
2022-11-21T03:25:49.239Z,2.61
2022-11-21T03:28:16.531Z,2.70
2022-11-21T03:30:43.890Z,2.67
2022-11-21T03:33:11.314Z,2.71
2022-11-21T03:35:38.577Z,2.85
2022-11-21T03:38:05.979Z,2.64
2022-11-21T03:40:33.576Z,2.69
2022-11-21T03:43:07.894Z,2.60
2022-11-21T03:45:35.280Z,2.15
2022-11-21T03:48:02.539Z,2.66
2022-11-21T03:50:29.840Z,2.67
2022-11-21T03:52:57.153Z,2.78
2022-11-21T03:55:24.463Z,2.75
2022-11-21T03:57:51.824Z,2.72
2022-11-21T04:00:19.380Z,2.68
2022-11-21T04:02:46.662Z,2.70
2022-11-21T04:05:13.947Z,2.63
2022-11-21T04:07:41.334Z,2.72
2022-11-21T04:10:09.073Z,2.68
2022-11-21T04:12:36.395Z,2.62
2022-11-21T04:15:07.054Z,2.70
2022-11-21T04:17:39.186Z,2.88
2022-11-21T04:20:06.893Z,2.63
2022-11-21T04:22:34.229Z,2.86
2022-11-21T04:25:01.557Z,2.80
2022-11-21T04:27:28.970Z,2.92
2022-11-21T04:29:56.295Z,2.65
2022-11-21T04:32:23.640Z,2.75
2022-11-21T04:34:50.968Z,2.84
2022-11-21T04:37:18.423Z,2.90
2022-11-21T04:39:45.810Z,2.81
2022-11-21T04:42:13.148Z,2.81
2022-11-21T04:44:40.457Z,2.63
2022-11-21T04:47:08.060Z,2.55
2022-11-21T04:49:35.367Z,2.73
2022-11-21T04:52:03.875Z,2.65
2022-11-21T04:54:31.316Z,2.68
2022-11-21T04:56:58.793Z,2.59
2022-11-21T04:59:26.121Z,2.76
2022-11-21T05:01:53.413Z,2.82
2022-11-21T05:04:20.750Z,2.25
2022-11-21T05:06:48.081Z,2.79
2022-11-21T05:09:15.351Z,2.72
2022-11-21T05:12:01.377Z,2.87
2022-11-21T05:14:29.011Z,2.88
2022-11-21T05:16:56.535Z,2.95
2022-11-21T05:19:23.815Z,2.84
2022-11-21T05:21:51.087Z,2.75
2022-11-21T05:24:18.359Z,2.91
2022-11-21T05:26:45.674Z,2.84
2022-11-21T05:29:13.031Z,2.83
2022-11-21T05:31:40.389Z,2.83
2022-11-21T05:34:07.670Z,2.81
2022-11-21T05:36:35.022Z,2.95
2022-11-21T05:39:02.340Z,2.83
2022-11-21T05:41:29.766Z,2.89
2022-11-21T05:43:57.398Z,3.00
2022-11-21T05:46:26.224Z,2.93
2022-11-21T05:48:54.756Z,2.75
2022-11-21T05:51:22.856Z,2.98
2022-11-21T05:53:50.169Z,3.06
2022-11-21T05:56:19.592Z,3.01
2022-11-21T05:58:47.061Z,2.96
2022-11-21T06:01:15.439Z,2.98
2022-11-21T06:03:43.294Z,3.10
2022-11-21T06:06:13.004Z,3.17
2022-11-21T06:08:47.049Z,3.02
2022-11-21T06:11:16.247Z,2.94
2022-11-21T06:13:44.203Z,3.03
2022-11-21T06:16:21.647Z,3.24
2022-11-21T06:18:58.366Z,3.03
2022-11-21T06:21:28.533Z,3.04
2022-11-21T06:23:58.059Z,3.34
2022-11-21T06:26:26.828Z,3.20
2022-11-21T06:28:55.017Z,3.26
2022-11-21T06:31:27.175Z,3.26
2022-11-21T06:33:56.195Z,3.18
2022-11-21T06:36:23.913Z,3.19
2022-11-21T06:38:53.783Z,3.32
2022-11-21T06:41:23.270Z,3.50
2022-11-21T06:43:50.799Z,3.29
2022-11-21T06:46:18.834Z,3.30
2022-11-21T06:48:46.163Z,3.38
2022-11-21T06:51:16.435Z,3.55
2022-11-21T06:53:44.049Z,3.55
2022-11-21T06:56:11.463Z,3.47
2022-11-21T06:58:38.819Z,2.94
2022-11-21T07:01:08.354Z,3.73
2022-11-21T07:03:36.559Z,3.41
2022-11-21T07:06:04.250Z,3.70
2022-11-21T07:08:33.502Z,3.71
2022-11-21T07:13:53.221Z,3.85
2022-11-21T07:16:20.706Z,3.74
2022-11-21T07:18:48.204Z,3.70
2022-11-21T07:21:15.528Z,3.82
2022-11-21T07:23:42.912Z,3.82
2022-11-21T07:26:10.782Z,3.95
2022-11-21T07:28:38.073Z,3.67
2022-11-21T07:31:11.735Z,3.98
2022-11-21T07:33:40.992Z,3.92
2022-11-21T07:36:08.464Z,3.84
2022-11-21T07:38:35.736Z,3.93
2022-11-21T07:41:03.232Z,4.14
2022-11-21T07:43:30.660Z,3.90
2022-11-21T07:46:00.126Z,4.09
2022-11-21T07:48:27.491Z,3.93
2022-11-21T07:50:54.823Z,4.18
2022-11-21T07:53:22.179Z,4.05
2022-11-21T07:55:49.528Z,3.63
2022-11-21T07:58:17.456Z,4.33
2022-11-21T08:00:44.939Z,4.10
2022-11-21T08:03:13.461Z,4.33
2022-11-21T08:05:44.623Z,4.36
2022-11-21T08:08:13.154Z,4.09
2022-11-21T08:10:43.221Z,4.32
2022-11-21T08:13:11.657Z,4.47
2022-11-21T08:15:39.571Z,4.30
2022-11-21T08:18:11.727Z,4.46
2022-11-21T08:20:40.596Z,4.68
2022-11-21T08:23:08.257Z,4.81
2022-11-21T08:25:38.858Z,5.00
2022-11-21T08:28:08.277Z,4.99
2022-11-21T08:30:36.884Z,5.12
2022-11-21T08:33:05.024Z,4.87
2022-11-21T08:35:32.539Z,4.96
2022-11-21T08:38:01.434Z,4.96
2022-11-21T08:40:30.862Z,4.86
2022-11-21T08:42:58.773Z,5.13
2022-11-21T08:45:26.513Z,5.34
2022-11-21T08:47:54.759Z,5.32
2022-11-21T08:50:23.339Z,5.45
2022-11-21T08:52:50.675Z,5.28
2022-11-21T08:55:18.214Z,5.39
2022-11-21T08:57:45.532Z,5.04
2022-11-21T09:00:13.765Z,5.31
2022-11-21T09:02:41.170Z,5.34
2022-11-21T09:05:09.396Z,5.67
2022-11-21T09:07:37.154Z,5.75
2022-11-21T09:10:05.152Z,5.45
2022-11-21T09:12:32.557Z,5.60
2022-11-21T09:15:18.444Z,5.20
2022-11-21T09:18:03.878Z,5.26
2022-11-21T09:20:39.646Z,5.77
2022-11-21T09:23:14.985Z,5.76
2022-11-21T09:25:43.009Z,5.96
2022-11-21T09:28:12.595Z,6.10
2022-11-21T09:30:41.229Z,6.02
2022-11-21T09:33:14.368Z,6.17
2022-11-21T09:35:41.726Z,6.39
2022-11-21T09:38:09.481Z,6.28
2022-11-21T09:40:41.967Z,6.29
2022-11-21T09:43:30.282Z,6.35
2022-11-21T09:46:13.238Z,6.27
2022-11-21T09:48:48.576Z,6.15
2022-11-21T09:51:19.264Z,6.06
2022-11-21T09:53:59.426Z,6.15
2022-11-21T09:56:30.382Z,6.02
2022-11-21T09:59:25.721Z,6.52
2022-11-21T10:01:53.122Z,6.59
2022-11-21T10:04:20.598Z,6.28
2022-11-21T10:07:16.104Z,6.47
2022-11-21T10:10:22.151Z,6.53
2022-11-21T10:13:13.908Z,6.62
2022-11-21T10:16:06.402Z,6.59
2022-11-21T10:19:03.790Z,6.33
2022-11-21T10:21:49.443Z,6.58
2022-11-21T10:24:52.612Z,6.59
2022-11-21T10:27:37.851Z,6.84
2022-11-21T10:30:13.819Z,6.73
2022-11-21T10:32:46.234Z,6.84
2022-11-21T10:35:21.962Z,7.06
2022-11-21T10:38:01.679Z,7.16
2022-11-21T10:40:42.101Z,7.46
2022-11-21T10:43:36.977Z,7.46
2022-11-21T10:46:04.320Z,7.73
2022-11-21T10:48:31.640Z,7.36
2022-11-21T10:51:18.705Z,7.45
2022-11-21T10:54:07.753Z,7.44
2022-11-21T10:56:37.100Z,7.37
2022-11-21T10:59:20.246Z,7.51
2022-11-21T11:01:56.510Z,7.64
2022-11-21T11:04:43.995Z,7.62
2022-11-21T11:07:28.153Z,7.92
2022-11-21T11:10:26.889Z,8.29
2022-11-21T11:16:16.199Z,8.29
2022-11-21T11:18:55.766Z,8.36
2022-11-21T11:21:25.629Z,7.90
2022-11-21T11:23:53.990Z,8.32
2022-11-21T11:26:26.513Z,8.13
2022-11-21T11:28:58.704Z,8.14
2022-11-21T11:31:26.063Z,7.89
2022-11-21T11:33:55.850Z,7.87
2022-11-21T11:36:23.117Z,7.73
2022-11-21T11:38:59.262Z,7.72
2022-11-21T11:42:12.433Z,7.58
2022-11-21T11:45:27.811Z,7.69
2022-11-21T11:47:58.163Z,7.65
2022-11-21T11:50:53.534Z,7.68
2022-11-21T11:53:30.500Z,7.44
2022-11-21T11:56:00.274Z,7.60
2022-11-21T11:58:49.588Z,7.79
2022-11-21T12:01:21.968Z,7.78
2022-11-21T12:04:02.473Z,7.51
2022-11-21T12:07:46.680Z,7.93
2022-11-21T12:10:02.542Z,8.03
2022-11-21T12:12:37.674Z,7.87
2022-11-21T12:15:45.419Z,8.01
2022-11-21T12:18:15.811Z,8.14
2022-11-21T12:21:15.328Z,8.24
2022-11-21T12:23:54.234Z,8.15
2022-11-21T12:26:55.380Z,8.13
2022-11-21T12:30:00.733Z,8.04
2022-11-21T12:33:08.796Z,8.23
2022-11-21T12:36:17.869Z,8.08
2022-11-21T12:39:06.882Z,7.76
2022-11-21T12:42:00.284Z,8.07
2022-11-21T12:45:05.559Z,7.96
2022-11-21T12:48:12.541Z,7.97
2022-11-21T12:51:17.186Z,8.00
2022-11-21T12:54:29.001Z,8.08
2022-11-21T12:57:05.434Z,8.08
2022-11-21T12:59:40.569Z,7.70
2022-11-21T13:02:38.532Z,8.01
2022-11-21T13:05:12.107Z,8.06
2022-11-21T13:07:40.973Z,7.97
2022-11-21T13:10:14.847Z,8.03
2022-11-21T13:12:51.400Z,8.00
2022-11-21T13:15:28.166Z,8.03
2022-11-21T13:18:19.385Z,7.81
2022-11-21T13:20:49.149Z,7.72
2022-11-21T13:23:37.055Z,7.99
2022-11-21T13:26:33.762Z,7.88
2022-11-21T13:29:27.426Z,7.90
2022-11-21T13:31:55.170Z,7.73
2022-11-21T13:34:31.730Z,7.73
2022-11-21T13:36:59.318Z,7.75
2022-11-21T13:39:29.885Z,7.99
2022-11-21T13:42:29.259Z,7.80
2022-11-21T13:44:58.664Z,7.79
2022-11-21T13:47:25.934Z,7.78
2022-11-21T13:50:11.565Z,7.51
2022-11-21T13:52:57.330Z,7.44
2022-11-21T13:55:55.686Z,7.41
2022-11-21T13:58:47.726Z,7.53
2022-11-21T14:01:53.163Z,7.58
2022-11-21T14:04:20.496Z,7.62
2022-11-21T14:06:48.447Z,7.60
2022-11-21T14:09:20.284Z,7.70
2022-11-21T14:11:51.086Z,7.63
2022-11-21T14:14:41.489Z,7.79
2022-11-21T14:17:26.947Z,7.79
2022-11-21T14:19:59.885Z,7.65
2022-11-21T14:22:45.991Z,7.67
2022-11-21T14:25:20.166Z,7.33
2022-11-21T14:27:51.216Z,7.38
2022-11-21T14:30:35.381Z,7.39
2022-11-21T14:33:22.813Z,7.20
2022-11-21T14:35:54.214Z,7.15
2022-11-21T14:38:24.912Z,7.11
2022-11-21T14:41:27.545Z,7.11
2022-11-21T14:44:04.173Z,7.05
2022-11-21T14:46:37.613Z,6.85
2022-11-21T14:49:17.166Z,6.84
2022-11-21T14:52:11.342Z,6.81
2022-11-21T14:55:22.800Z,6.45
2022-11-21T14:57:43.312Z,6.55
2022-11-21T15:00:36.308Z,6.74
2022-11-21T15:03:03.333Z,6.43
2022-11-21T15:06:00.901Z,6.57
2022-11-21T15:08:48.003Z,6.72
2022-11-21T15:11:12.731Z,6.52
2022-11-21T15:16:28.887Z,6.40
2022-11-21T15:18:56.671Z,6.22
2022-11-21T15:21:26.438Z,6.02
2022-11-21T15:23:55.536Z,5.90
2022-11-21T15:26:35.519Z,6.06
2022-11-21T15:29:02.808Z,6.05
2022-11-21T15:31:31.237Z,5.54
2022-11-21T15:37:08.201Z,5.21
2022-11-21T15:39:36.147Z,5.13
2022-11-21T15:42:31.283Z,5.24
2022-11-21T15:45:20.438Z,5.21
2022-11-21T15:47:49.000Z,5.23
2022-11-21T15:50:17.418Z,5.20
2022-11-21T15:52:46.046Z,5.20
2022-11-21T15:55:19.717Z,5.15
2022-11-21T15:57:14.859Z,6.35
2022-11-21T15:57:49.446Z,5.13
2022-11-21T16:00:17.539Z,5.05
2022-11-21T16:02:44.801Z,4.84
2022-11-21T16:05:14.012Z,4.94
2022-11-21T16:07:42.148Z,4.91
2022-11-21T16:10:18.319Z,5.00
2022-11-21T16:12:47.211Z,4.63
2022-11-21T16:15:14.611Z,4.95
2022-11-21T16:17:41.983Z,4.74
2022-11-21T16:20:09.670Z,4.73
2022-11-21T16:22:36.959Z,4.54
2022-11-21T16:25:04.658Z,4.69
2022-11-21T16:27:32.738Z,4.85
2022-11-21T16:30:00.064Z,4.61
2022-11-21T16:32:27.976Z,4.83
2022-11-21T16:34:55.223Z,4.67
2022-11-21T16:37:22.547Z,4.80
2022-11-21T16:39:52.247Z,4.64
2022-11-21T16:42:20.248Z,4.97
2022-11-21T16:44:48.140Z,4.68
2022-11-21T16:47:15.628Z,4.84
2022-11-21T16:49:48.441Z,5.10
2022-11-21T16:52:18.211Z,4.92
2022-11-21T16:54:48.645Z,5.08
2022-11-21T16:57:15.899Z,4.65
2022-11-21T16:59:43.234Z,4.98
2022-11-21T17:02:11.343Z,4.98
2022-11-21T17:04:38.647Z,4.80
2022-11-21T17:07:06.031Z,4.87
2022-11-21T17:09:33.477Z,4.87
2022-11-21T17:12:00.772Z,4.60
2022-11-21T17:14:28.345Z,4.75
2022-11-21T17:16:56.017Z,5.13
2022-11-21T17:19:23.524Z,4.96
2022-11-21T17:21:50.849Z,4.81
2022-11-21T17:24:18.493Z,4.87
2022-11-21T17:26:45.836Z,5.00
2022-11-21T17:29:13.215Z,4.70
2022-11-21T17:31:41.911Z,4.66
2022-11-21T17:34:09.308Z,4.51
2022-11-21T17:36:36.611Z,4.86
2022-11-21T17:39:04.170Z,4.66
2022-11-21T17:41:31.488Z,4.81
2022-11-21T17:44:02.148Z,4.61
2022-11-21T17:46:29.766Z,4.79
2022-11-21T17:48:58.816Z,4.83
2022-11-21T17:51:33.497Z,4.67
2022-11-21T17:54:02.029Z,4.73
2022-11-21T17:56:31.907Z,4.85
2022-11-21T17:58:59.351Z,4.69
2022-11-21T18:01:27.052Z,4.55
2022-11-21T18:03:59.512Z,4.72
2022-11-21T18:06:29.284Z,4.48
2022-11-21T18:08:59.885Z,4.41
2022-11-21T18:11:38.987Z,4.40
2022-11-21T18:14:08.046Z,4.08
2022-11-21T18:16:35.892Z,3.99
2022-11-21T18:19:03.504Z,4.13
2022-11-21T18:21:33.452Z,3.89
2022-11-21T18:24:00.716Z,4.03
2022-11-21T18:26:39.113Z,3.84
2022-11-21T18:31:58.932Z,3.67
2022-11-21T18:34:26.284Z,3.81
2022-11-21T18:36:54.324Z,3.55
2022-11-21T18:39:24.945Z,3.49
2022-11-21T18:41:52.416Z,3.32
2022-11-21T18:44:22.331Z,3.54
2022-11-21T18:46:50.480Z,3.66
2022-11-21T18:49:18.259Z,3.43
2022-11-21T18:51:48.980Z,3.53
2022-11-21T18:54:16.378Z,3.54
2022-11-21T18:56:43.995Z,3.33
2022-11-21T18:59:11.439Z,3.39
2022-11-21T19:01:42.080Z,3.19
2022-11-21T19:04:09.811Z,3.28
2022-11-21T19:06:37.211Z,3.24
2022-11-21T19:09:04.611Z,3.10
2022-11-21T19:11:32.052Z,3.09
2022-11-21T19:14:00.813Z,2.85
2022-11-21T19:16:31.454Z,3.13
2022-11-21T19:19:32.981Z,3.07
2022-11-21T19:21:47.179Z,2.92
2022-11-21T19:24:15.476Z,3.18
2022-11-21T19:26:45.915Z,2.92
2022-11-21T19:29:13.313Z,2.87
2022-11-21T19:31:45.317Z,2.92
2022-11-21T19:34:15.045Z,2.95
2022-11-21T19:36:42.780Z,2.93
2022-11-21T19:39:10.547Z,2.90
2022-11-21T19:41:38.300Z,2.53
2022-11-21T19:44:05.749Z,2.44
2022-11-21T19:46:35.357Z,2.57
2022-11-21T19:49:06.380Z,2.70
2022-11-21T19:51:39.852Z,2.33
2022-11-21T19:54:09.238Z,2.65
2022-11-21T19:56:36.587Z,2.51
2022-11-21T19:59:04.365Z,2.49
2022-11-21T20:01:33.670Z,2.49
2022-11-21T20:04:03.472Z,2.54
2022-11-21T20:06:33.582Z,2.59
2022-11-21T20:09:05.378Z,2.54
2022-11-21T20:11:33.559Z,2.41
2022-11-21T20:14:01.180Z,2.21
2022-11-21T20:16:31.065Z,2.24
2022-11-21T20:18:59.826Z,2.24
2022-11-21T20:21:27.857Z,2.13
2022-11-21T20:23:57.331Z,2.03
2022-11-21T20:26:25.796Z,1.94
2022-11-21T20:28:53.528Z,1.78
2022-11-21T20:31:23.460Z,1.94
2022-11-21T20:33:51.825Z,1.89
2022-11-21T20:36:21.275Z,1.80
2022-11-21T20:39:00.255Z,1.62
2022-11-21T20:41:30.041Z,1.51
2022-11-21T20:46:47.057Z,1.50
2022-11-21T20:49:14.596Z,1.17
2022-11-21T20:54:31.168Z,1.17
2022-11-21T20:56:58.658Z,1.25
2022-11-21T20:59:26.543Z,1.25
2022-11-21T21:01:54.065Z,1.05
2022-11-21T21:04:21.406Z,1.08
2022-11-21T21:06:48.691Z,1.12
2022-11-21T21:09:16.070Z,1.13
2022-11-21T21:11:52.691Z,0.91
2022-11-21T21:14:22.074Z,0.61
2022-11-21T21:16:50.013Z,0.62
2022-11-21T21:19:17.913Z,0.54
2022-11-21T21:21:45.350Z,0.60
2022-11-21T21:24:13.448Z,0.52
2022-11-21T21:26:46.565Z,0.33
2022-11-21T21:29:17.814Z,0.21
2022-11-21T21:31:51.055Z,0.14
2022-11-21T21:34:21.165Z,0.32
2022-11-21T21:36:49.402Z,0.30
2022-11-21T21:39:16.977Z,0.52
2022-11-21T21:41:46.184Z,0.37
2022-11-21T21:44:14.241Z,0.50
2022-11-21T21:46:41.785Z,0.24
2022-11-21T21:49:09.080Z,0.42
2022-11-21T21:51:37.573Z,0.66
2022-11-21T21:54:06.522Z,0.50
2022-11-21T21:56:34.326Z,0.19
2022-11-21T21:59:01.663Z,0.30
2022-11-21T22:01:31.642Z,0.14
2022-11-21T22:04:01.197Z,0.27
2022-11-21T22:06:29.680Z,0.13
2022-11-21T22:08:57.029Z,0.21
2022-11-21T22:11:26.616Z,0.19
2022-11-21T22:13:59.424Z,-0.02
2022-11-21T22:16:27.296Z,-0.10
2022-11-21T22:18:54.678Z,0.03
2022-11-21T22:21:32.971Z,0.36
2022-11-21T22:24:26.061Z,0.50
2022-11-21T22:26:53.894Z,0.49
2022-11-21T22:29:21.186Z,-0.02
2022-11-21T22:31:48.475Z,-0.01
2022-11-21T22:34:15.851Z,-0.22
2022-11-21T22:36:43.452Z,-0.36
2022-11-21T22:39:10.726Z,-0.32
2022-11-21T22:41:38.087Z,-0.60
2022-11-21T22:44:05.586Z,-0.75
2022-11-21T22:46:32.964Z,-0.50
2022-11-21T22:49:00.298Z,-0.85
2022-11-21T22:51:29.789Z,-0.73
2022-11-21T22:53:57.625Z,-0.61
2022-11-21T22:56:25.775Z,-0.80
2022-11-21T22:58:53.891Z,-0.76
2022-11-21T23:01:23.552Z,-0.48
2022-11-21T23:03:51.710Z,-0.57
2022-11-21T23:06:21.477Z,-0.57
2022-11-21T23:08:49.557Z,-0.44
2022-11-21T23:11:21.612Z,-0.25
2022-11-21T23:13:49.420Z,-0.52
2022-11-21T23:16:17.341Z,-0.59
2022-11-21T23:18:44.781Z,-0.64
2022-11-21T23:21:13.098Z,-0.38
2022-11-21T23:23:41.177Z,-0.32
2022-11-21T23:26:08.652Z,-0.48
2022-11-21T23:28:36.441Z,-0.46
2022-11-21T23:31:03.852Z,0.37
2022-11-21T23:33:31.164Z,0.10
2022-11-21T23:35:58.531Z,0.15
2022-11-21T23:38:25.840Z,-0.28
2022-11-21T23:40:53.216Z,-0.27
2022-11-21T23:43:20.562Z,-0.37
2022-11-21T23:45:52.315Z,-0.58
2022-11-21T23:48:20.667Z,-0.65
2022-11-21T23:50:50.420Z,-1.01
2022-11-21T23:53:18.844Z,-0.65
2022-11-21T23:55:46.537Z,-0.72
2022-11-21T23:58:14.224Z,-0.72
